sensor_id;sensor_type;location;lat;lon;timestamp;temperature;humidity
33139;DHT22;19501;50.948;5.316;2023-02-01T00:01:26;6.70;99.90
33139;DHT22;19501;50.948;5.316;2023-02-01T00:03:52;6.80;99.90
33139;DHT22;19501;50.948;5.316;2023-02-01T00:06:17;6.80;99.90
33139;DHT22;19501;50.948;5.316;2023-02-01T00:08:43;6.70;99.90
33139;DHT22;19501;50.948;5.316;2023-02-01T00:11:09;6.70;99.90
33139;DHT22;19501;50.948;5.316;2023-02-01T00:13:35;6.70;99.90
33139;DHT22;19501;50.948;5.316;2023-02-01T00:16:08;6.80;99.90
33139;DHT22;19501;50.948;5.316;2023-02-01T00:18:34;6.80;99.90
33139;DHT22;19501;50.948;5.316;2023-02-01T00:21:00;6.70;99.90
33139;DHT22;19501;50.948;5.316;2023-02-01T00:23:26;6.60;99.90
33139;DHT22;19501;50.948;5.316;2023-02-01T00:25:52;6.60;99.90
33139;DHT22;19501;50.948;5.316;2023-02-01T00:28:17;6.60;99.90
33139;DHT22;19501;50.948;5.316;2023-02-01T00:30:43;6.60;99.90
33139;DHT22;19501;50.948;5.316;2023-02-01T00:33:09;6.70;99.90
33139;DHT22;19501;50.948;5.316;2023-02-01T00:35:35;6.70;99.90
33139;DHT22;19501;50.948;5.316;2023-02-01T00:38:01;6.70;99.90
33139;DHT22;19501;50.948;5.316;2023-02-01T00:40:27;6.60;99.90
33139;DHT22;19501;50.948;5.316;2023-02-01T00:42:52;6.70;99.90
33139;DHT22;19501;50.948;5.316;2023-02-01T00:45:19;6.70;99.90
33139;DHT22;19501;50.948;5.316;2023-02-01T00:47:45;6.80;99.90
33139;DHT22;19501;50.948;5.316;2023-02-01T00:50:11;6.80;99.90
33139;DHT22;19501;50.948;5.316;2023-02-01T00:52:37;6.80;99.90
33139;DHT22;19501;50.948;5.316;2023-02-01T00:55:03;6.90;99.90
33139;DHT22;19501;50.948;5.316;2023-02-01T00:57:28;6.90;99.90
33139;DHT22;19501;50.948;5.316;2023-02-01T00:59:54;6.80;99.90
33139;DHT22;19501;50.948;5.316;2023-02-01T01:02:20;6.90;99.90
33139;DHT22;19501;50.948;5.316;2023-02-01T01:04:46;6.90;99.90
33139;DHT22;19501;50.948;5.316;2023-02-01T01:07:11;7.00;99.90
33139;DHT22;19501;50.948;5.316;2023-02-01T01:09:37;7.00;99.90
33139;DHT22;19501;50.948;5.316;2023-02-01T01:12:02;7.10;99.90
33139;DHT22;19501;50.948;5.316;2023-02-01T01:14:28;7.10;99.90
33139;DHT22;19501;50.948;5.316;2023-02-01T01:16:54;7.20;99.90
33139;DHT22;19501;50.948;5.316;2023-02-01T01:19:20;7.20;99.90
33139;DHT22;19501;50.948;5.316;2023-02-01T01:21:45;7.20;99.90
33139;DHT22;19501;50.948;5.316;2023-02-01T01:24:11;7.20;99.90
33139;DHT22;19501;50.948;5.316;2023-02-01T01:26:37;7.10;99.90
33139;DHT22;19501;50.948;5.316;2023-02-01T01:29:03;7.10;99.90
33139;DHT22;19501;50.948;5.316;2023-02-01T01:31:29;7.10;99.90
33139;DHT22;19501;50.948;5.316;2023-02-01T01:33:55;7.10;99.90
33139;DHT22;19501;50.948;5.316;2023-02-01T01:36:21;6.80;99.90
33139;DHT22;19501;50.948;5.316;2023-02-01T01:38:47;6.70;99.90
33139;DHT22;19501;50.948;5.316;2023-02-01T01:41:15;6.60;99.90
33139;DHT22;19501;50.948;5.316;2023-02-01T01:43:48;6.70;99.90
33139;DHT22;19501;50.948;5.316;2023-02-01T01:46:17;6.80;99.90
33139;DHT22;19501;50.948;5.316;2023-02-01T01:48:46;6.70;99.90
33139;DHT22;19501;50.948;5.316;2023-02-01T01:51:12;6.60;99.90
33139;DHT22;19501;50.948;5.316;2023-02-01T01:53:48;6.60;99.90
33139;DHT22;19501;50.948;5.316;2023-02-01T01:56:14;6.70;99.90
33139;DHT22;19501;50.948;5.316;2023-02-01T01:58:40;6.80;99.90
33139;DHT22;19501;50.948;5.316;2023-02-01T02:01:06;6.80;99.90
33139;DHT22;19501;50.948;5.316;2023-02-01T02:03:32;6.90;99.90
33139;DHT22;19501;50.948;5.316;2023-02-01T02:06:00;6.80;99.90
33139;DHT22;19501;50.948;5.316;2023-02-01T02:08:26;6.80;99.90
33139;DHT22;19501;50.948;5.316;2023-02-01T02:10:52;6.90;99.90
33139;DHT22;19501;50.948;5.316;2023-02-01T02:13:33;6.80;99.90
33139;DHT22;19501;50.948;5.316;2023-02-01T02:37:16;7.00;99.90
33139;DHT22;19501;50.948;5.316;2023-02-01T02:42:25;7.20;99.90
33139;DHT22;19501;50.948;5.316;2023-02-01T02:45:18;7.10;99.90
33139;DHT22;19501;50.948;5.316;2023-02-01T02:50:37;7.10;99.90
33139;DHT22;19501;50.948;5.316;2023-02-01T02:56:25;7.00;99.90
33139;DHT22;19501;50.948;5.316;2023-02-01T02:59:11;7.10;99.90
33139;DHT22;19501;50.948;5.316;2023-02-01T03:01:56;7.10;99.90
33139;DHT22;19501;50.948;5.316;2023-02-01T03:04:41;7.10;99.90
33139;DHT22;19501;50.948;5.316;2023-02-01T03:09:39;7.00;99.90
33139;DHT22;19501;50.948;5.316;2023-02-01T03:12:07;6.90;99.90
33139;DHT22;19501;50.948;5.316;2023-02-01T03:14:56;6.80;99.90
33139;DHT22;19501;50.948;5.316;2023-02-01T03:17:25;6.80;99.90
33139;DHT22;19501;50.948;5.316;2023-02-01T03:19:52;6.80;99.90
33139;DHT22;19501;50.948;5.316;2023-02-01T03:22:23;6.70;99.90
33139;DHT22;19501;50.948;5.316;2023-02-01T03:24:51;6.70;99.90
33139;DHT22;19501;50.948;5.316;2023-02-01T03:30:24;6.70;99.90
33139;DHT22;19501;50.948;5.316;2023-02-01T03:32:51;6.60;99.90
33139;DHT22;19501;50.948;5.316;2023-02-01T03:35:48;6.60;99.90
33139;DHT22;19501;50.948;5.316;2023-02-01T03:40:36;6.50;99.90
33139;DHT22;19501;50.948;5.316;2023-02-01T03:43:02;6.50;99.90
33139;DHT22;19501;50.948;5.316;2023-02-01T03:45:36;6.40;99.90
33139;DHT22;19501;50.948;5.316;2023-02-01T03:48:05;6.50;99.90
33139;DHT22;19501;50.948;5.316;2023-02-01T03:50:32;6.40;99.90
33139;DHT22;19501;50.948;5.316;2023-02-01T03:53:21;6.40;99.90
33139;DHT22;19501;50.948;5.316;2023-02-01T03:55:45;6.40;99.90
33139;DHT22;19501;50.948;5.316;2023-02-01T04:00:37;6.30;99.90
33139;DHT22;19501;50.948;5.316;2023-02-01T04:03:04;6.30;99.90
33139;DHT22;19501;50.948;5.316;2023-02-01T04:05:29;6.30;99.90
33139;DHT22;19501;50.948;5.316;2023-02-01T04:07:55;6.20;99.90
33139;DHT22;19501;50.948;5.316;2023-02-01T04:10:21;6.30;99.90
33139;DHT22;19501;50.948;5.316;2023-02-01T04:12:47;6.30;99.90
33139;DHT22;19501;50.948;5.316;2023-02-01T04:15:12;6.30;99.90
33139;DHT22;19501;50.948;5.316;2023-02-01T04:17:38;6.30;99.90
33139;DHT22;19501;50.948;5.316;2023-02-01T04:20:03;6.30;99.90
33139;DHT22;19501;50.948;5.316;2023-02-01T04:22:30;6.20;99.90
33139;DHT22;19501;50.948;5.316;2023-02-01T04:24:56;6.10;99.90
33139;DHT22;19501;50.948;5.316;2023-02-01T04:27:21;6.20;99.90
33139;DHT22;19501;50.948;5.316;2023-02-01T04:29:47;6.20;99.90
33139;DHT22;19501;50.948;5.316;2023-02-01T04:32:15;6.30;99.90
33139;DHT22;19501;50.948;5.316;2023-02-01T04:34:41;6.20;99.90
33139;DHT22;19501;50.948;5.316;2023-02-01T04:37:09;6.20;99.90
33139;DHT22;19501;50.948;5.316;2023-02-01T04:39:35;6.20;99.90
33139;DHT22;19501;50.948;5.316;2023-02-01T04:42:00;6.20;99.90
33139;DHT22;19501;50.948;5.316;2023-02-01T04:44:26;6.20;99.90
33139;DHT22;19501;50.948;5.316;2023-02-01T04:46:51;6.10;99.90
33139;DHT22;19501;50.948;5.316;2023-02-01T04:49:17;6.30;99.90
33139;DHT22;19501;50.948;5.316;2023-02-01T04:51:42;6.20;99.90
33139;DHT22;19501;50.948;5.316;2023-02-01T04:54:08;6.10;99.90
33139;DHT22;19501;50.948;5.316;2023-02-01T04:56:36;6.10;99.90
33139;DHT22;19501;50.948;5.316;2023-02-01T04:59:02;6.10;99.90
33139;DHT22;19501;50.948;5.316;2023-02-01T05:01:28;6.20;99.90
33139;DHT22;19501;50.948;5.316;2023-02-01T05:03:54;6.10;99.90
33139;DHT22;19501;50.948;5.316;2023-02-01T05:06:20;6.10;99.90
33139;DHT22;19501;50.948;5.316;2023-02-01T05:08:45;6.10;99.90
33139;DHT22;19501;50.948;5.316;2023-02-01T05:11:13;6.00;99.90
33139;DHT22;19501;50.948;5.316;2023-02-01T05:13:58;6.10;99.90
33139;DHT22;19501;50.948;5.316;2023-02-01T05:16:23;6.10;99.90
33139;DHT22;19501;50.948;5.316;2023-02-01T05:18:52;6.10;99.90
33139;DHT22;19501;50.948;5.316;2023-02-01T05:21:18;6.10;99.90
33139;DHT22;19501;50.948;5.316;2023-02-01T05:23:44;6.20;99.90
33139;DHT22;19501;50.948;5.316;2023-02-01T05:26:28;6.10;99.90
33139;DHT22;19501;50.948;5.316;2023-02-01T05:28:54;6.10;99.90
33139;DHT22;19501;50.948;5.316;2023-02-01T05:31:20;6.00;99.90
33139;DHT22;19501;50.948;5.316;2023-02-01T05:33:45;6.00;99.90
33139;DHT22;19501;50.948;5.316;2023-02-01T05:36:11;6.10;99.90
33139;DHT22;19501;50.948;5.316;2023-02-01T05:38:37;6.10;99.90
33139;DHT22;19501;50.948;5.316;2023-02-01T05:41:03;6.00;99.90
33139;DHT22;19501;50.948;5.316;2023-02-01T05:43:28;6.00;99.90
33139;DHT22;19501;50.948;5.316;2023-02-01T05:45:54;6.00;99.90
33139;DHT22;19501;50.948;5.316;2023-02-01T05:48:19;6.00;99.90
33139;DHT22;19501;50.948;5.316;2023-02-01T05:50:48;5.90;99.90
33139;DHT22;19501;50.948;5.316;2023-02-01T05:53:13;5.80;99.90
33139;DHT22;19501;50.948;5.316;2023-02-01T05:55:39;5.80;99.90
33139;DHT22;19501;50.948;5.316;2023-02-01T05:58:06;5.80;99.90
33139;DHT22;19501;50.948;5.316;2023-02-01T06:00:32;5.80;99.90
33139;DHT22;19501;50.948;5.316;2023-02-01T06:02:57;5.80;99.90
33139;DHT22;19501;50.948;5.316;2023-02-01T06:05:23;5.80;99.90
33139;DHT22;19501;50.948;5.316;2023-02-01T06:07:48;5.80;99.90
33139;DHT22;19501;50.948;5.316;2023-02-01T06:10:15;5.70;99.90
33139;DHT22;19501;50.948;5.316;2023-02-01T06:12:41;5.70;99.90
33139;DHT22;19501;50.948;5.316;2023-02-01T06:15:07;5.70;99.90
33139;DHT22;19501;50.948;5.316;2023-02-01T06:17:32;5.70;99.90
33139;DHT22;19501;50.948;5.316;2023-02-01T06:19:58;5.70;99.90
33139;DHT22;19501;50.948;5.316;2023-02-01T06:22:23;5.70;99.90
33139;DHT22;19501;50.948;5.316;2023-02-01T06:24:50;5.60;99.90
33139;DHT22;19501;50.948;5.316;2023-02-01T06:27:17;5.60;99.90
33139;DHT22;19501;50.948;5.316;2023-02-01T06:29:43;5.60;99.90
33139;DHT22;19501;50.948;5.316;2023-02-01T06:32:08;5.60;99.90
33139;DHT22;19501;50.948;5.316;2023-02-01T06:34:34;5.60;99.90
33139;DHT22;19501;50.948;5.316;2023-02-01T06:37:00;5.60;99.90
33139;DHT22;19501;50.948;5.316;2023-02-01T06:39:25;5.60;99.90
33139;DHT22;19501;50.948;5.316;2023-02-01T06:41:52;5.50;99.90
33139;DHT22;19501;50.948;5.316;2023-02-01T06:44:18;5.50;99.90
33139;DHT22;19501;50.948;5.316;2023-02-01T06:46:44;5.50;99.90
33139;DHT22;19501;50.948;5.316;2023-02-01T06:49:10;5.50;99.90
33139;DHT22;19501;50.948;5.316;2023-02-01T06:51:35;5.40;99.90
33139;DHT22;19501;50.948;5.316;2023-02-01T06:54:01;5.40;99.90
33139;DHT22;19501;50.948;5.316;2023-02-01T06:56:27;5.40;99.90
33139;DHT22;19501;50.948;5.316;2023-02-01T06:58:53;5.40;99.90
33139;DHT22;19501;50.948;5.316;2023-02-01T07:01:19;5.40;99.90
33139;DHT22;19501;50.948;5.316;2023-02-01T07:03:48;5.50;99.90
33139;DHT22;19501;50.948;5.316;2023-02-01T07:06:15;5.40;99.90
33139;DHT22;19501;50.948;5.316;2023-02-01T07:08:40;5.40;99.90
33139;DHT22;19501;50.948;5.316;2023-02-01T07:11:07;5.40;99.90
33139;DHT22;19501;50.948;5.316;2023-02-01T07:13:33;5.40;99.90
33139;DHT22;19501;50.948;5.316;2023-02-01T07:16:03;5.50;99.90
33139;DHT22;19501;50.948;5.316;2023-02-01T07:18:29;5.50;99.90
33139;DHT22;19501;50.948;5.316;2023-02-01T07:20:55;5.40;99.90
33139;DHT22;19501;50.948;5.316;2023-02-01T07:23:21;5.40;99.90
33139;DHT22;19501;50.948;5.316;2023-02-01T07:25:46;5.40;99.90
33139;DHT22;19501;50.948;5.316;2023-02-01T07:28:12;5.40;99.90
33139;DHT22;19501;50.948;5.316;2023-02-01T07:30:37;5.40;99.90
33139;DHT22;19501;50.948;5.316;2023-02-01T07:33:03;5.40;99.90
33139;DHT22;19501;50.948;5.316;2023-02-01T07:35:29;5.40;99.90
33139;DHT22;19501;50.948;5.316;2023-02-01T07:37:54;5.40;99.90
33139;DHT22;19501;50.948;5.316;2023-02-01T07:40:20;5.40;99.90
33139;DHT22;19501;50.948;5.316;2023-02-01T07:42:50;5.30;99.90
33139;DHT22;19501;50.948;5.316;2023-02-01T07:45:15;5.30;99.90
33139;DHT22;19501;50.948;5.316;2023-02-01T07:47:41;5.40;99.90
33139;DHT22;19501;50.948;5.316;2023-02-01T07:50:07;5.40;99.90
33139;DHT22;19501;50.948;5.316;2023-02-01T07:52:35;5.30;99.90
33139;DHT22;19501;50.948;5.316;2023-02-01T07:55:01;5.30;99.90
33139;DHT22;19501;50.948;5.316;2023-02-01T07:57:26;5.30;99.90
33139;DHT22;19501;50.948;5.316;2023-02-01T07:59:52;5.20;99.90
33139;DHT22;19501;50.948;5.316;2023-02-01T08:02:36;5.30;99.90
33139;DHT22;19501;50.948;5.316;2023-02-01T08:05:01;5.30;99.90
33139;DHT22;19501;50.948;5.316;2023-02-01T08:07:27;5.30;99.90
33139;DHT22;19501;50.948;5.316;2023-02-01T08:09:53;5.30;99.90
33139;DHT22;19501;50.948;5.316;2023-02-01T08:12:18;5.30;99.90
33139;DHT22;19501;50.948;5.316;2023-02-01T08:14:44;5.30;99.90
33139;DHT22;19501;50.948;5.316;2023-02-01T08:17:10;5.30;99.90
33139;DHT22;19501;50.948;5.316;2023-02-01T08:19:35;5.30;99.90
33139;DHT22;19501;50.948;5.316;2023-02-01T08:22:01;5.40;99.90
33139;DHT22;19501;50.948;5.316;2023-02-01T08:24:31;5.40;99.90
33139;DHT22;19501;50.948;5.316;2023-02-01T08:26:56;5.40;99.90
33139;DHT22;19501;50.948;5.316;2023-02-01T08:29:22;5.50;99.90
33139;DHT22;19501;50.948;5.316;2023-02-01T08:31:48;5.70;99.90
33139;DHT22;19501;50.948;5.316;2023-02-01T08:34:13;5.80;99.90
33139;DHT22;19501;50.948;5.316;2023-02-01T08:36:39;5.90;99.90
33139;DHT22;19501;50.948;5.316;2023-02-01T08:39:06;6.10;99.90
33139;DHT22;19501;50.948;5.316;2023-02-01T08:41:34;6.00;99.90
33139;DHT22;19501;50.948;5.316;2023-02-01T08:43:59;6.00;99.90
33139;DHT22;19501;50.948;5.316;2023-02-01T08:46:25;6.00;99.90
33139;DHT22;19501;50.948;5.316;2023-02-01T08:48:51;6.00;99.90
33139;DHT22;19501;50.948;5.316;2023-02-01T08:51:17;6.10;99.90
33139;DHT22;19501;50.948;5.316;2023-02-01T08:53:43;6.20;99.90
33139;DHT22;19501;50.948;5.316;2023-02-01T08:56:12;6.30;99.90
33139;DHT22;19501;50.948;5.316;2023-02-01T08:58:37;6.30;99.90
33139;DHT22;19501;50.948;5.316;2023-02-01T09:01:07;6.30;99.90
33139;DHT22;19501;50.948;5.316;2023-02-01T09:03:33;6.30;99.90
33139;DHT22;19501;50.948;5.316;2023-02-01T09:06:04;6.20;99.90
33139;DHT22;19501;50.948;5.316;2023-02-01T09:08:30;6.20;99.90
33139;DHT22;19501;50.948;5.316;2023-02-01T09:10:59;6.30;99.90
33139;DHT22;19501;50.948;5.316;2023-02-01T09:13:25;6.30;99.90
33139;DHT22;19501;50.948;5.316;2023-02-01T09:15:51;6.40;99.90
33139;DHT22;19501;50.948;5.316;2023-02-01T09:18:16;6.50;99.90
33139;DHT22;19501;50.948;5.316;2023-02-01T09:20:42;6.50;99.90
33139;DHT22;19501;50.948;5.316;2023-02-01T09:23:08;6.40;99.90
33139;DHT22;19501;50.948;5.316;2023-02-01T09:25:33;6.50;99.90
33139;DHT22;19501;50.948;5.316;2023-02-01T09:27:59;6.50;99.90
33139;DHT22;19501;50.948;5.316;2023-02-01T09:30:24;6.60;99.90
33139;DHT22;19501;50.948;5.316;2023-02-01T09:32:50;6.70;99.90
33139;DHT22;19501;50.948;5.316;2023-02-01T09:35:16;6.60;99.90
33139;DHT22;19501;50.948;5.316;2023-02-01T09:37:41;6.60;99.90
33139;DHT22;19501;50.948;5.316;2023-02-01T09:40:10;6.70;99.90
33139;DHT22;19501;50.948;5.316;2023-02-01T09:48:19;6.70;99.90
33139;DHT22;19501;50.948;5.316;2023-02-01T09:50:56;6.80;99.90
33139;DHT22;19501;50.948;5.316;2023-02-01T09:55:48;6.90;99.90
33139;DHT22;19501;50.948;5.316;2023-02-01T10:00:53;7.00;99.90
33139;DHT22;19501;50.948;5.316;2023-02-01T10:03:19;7.00;99.90
33139;DHT22;19501;50.948;5.316;2023-02-01T10:11:24;7.10;99.90
33139;DHT22;19501;50.948;5.316;2023-02-01T10:13:56;7.10;99.90
33139;DHT22;19501;50.948;5.316;2023-02-01T10:16:31;7.30;99.90
33139;DHT22;19501;50.948;5.316;2023-02-01T10:26:46;7.50;99.90
33139;DHT22;19501;50.948;5.316;2023-02-01T10:29:17;7.60;99.90
33139;DHT22;19501;50.948;5.316;2023-02-01T10:31:43;7.60;99.90
33139;DHT22;19501;50.948;5.316;2023-02-01T10:36:42;7.70;99.90
33139;DHT22;19501;50.948;5.316;2023-02-01T10:39:10;7.80;99.90
33139;DHT22;19501;50.948;5.316;2023-02-01T10:41:38;7.90;99.90
33139;DHT22;19501;50.948;5.316;2023-02-01T10:44:06;8.00;99.90
33139;DHT22;19501;50.948;5.316;2023-02-01T10:46:35;8.10;99.90
33139;DHT22;19501;50.948;5.316;2023-02-01T10:49:02;8.10;99.90
33139;DHT22;19501;50.948;5.316;2023-02-01T10:51:51;8.20;99.90
33139;DHT22;19501;50.948;5.316;2023-02-01T10:54:16;8.20;99.90
33139;DHT22;19501;50.948;5.316;2023-02-01T10:56:43;8.30;99.90
33139;DHT22;19501;50.948;5.316;2023-02-01T10:59:14;8.30;99.90
33139;DHT22;19501;50.948;5.316;2023-02-01T11:01:41;8.50;99.90
33139;DHT22;19501;50.948;5.316;2023-02-01T11:04:10;8.60;99.90
33139;DHT22;19501;50.948;5.316;2023-02-01T11:06:39;8.70;99.90
33139;DHT22;19501;50.948;5.316;2023-02-01T11:11:32;8.90;99.90
33139;DHT22;19501;50.948;5.316;2023-02-01T11:13:59;8.90;99.90
33139;DHT22;19501;50.948;5.316;2023-02-01T11:16:30;9.00;99.90
33139;DHT22;19501;50.948;5.316;2023-02-01T11:18:56;9.00;99.90
33139;DHT22;19501;50.948;5.316;2023-02-01T11:21:23;9.10;99.90
33139;DHT22;19501;50.948;5.316;2023-02-01T11:23:49;9.20;99.90
33139;DHT22;19501;50.948;5.316;2023-02-01T11:26:20;9.30;99.90
33139;DHT22;19501;50.948;5.316;2023-02-01T11:28:55;9.50;99.90
33139;DHT22;19501;50.948;5.316;2023-02-01T11:31:21;9.40;99.90
33139;DHT22;19501;50.948;5.316;2023-02-01T11:33:50;9.60;99.90
33139;DHT22;19501;50.948;5.316;2023-02-01T11:36:18;9.80;99.90
33139;DHT22;19501;50.948;5.316;2023-02-01T11:38:54;9.90;99.90
33139;DHT22;19501;50.948;5.316;2023-02-01T11:41:30;9.70;99.90
33139;DHT22;19501;50.948;5.316;2023-02-01T11:43:58;9.80;99.90
33139;DHT22;19501;50.948;5.316;2023-02-01T11:46:31;9.80;99.90
33139;DHT22;19501;50.948;5.316;2023-02-01T11:48:57;9.80;99.90
33139;DHT22;19501;50.948;5.316;2023-02-01T11:51:45;9.80;99.90
33139;DHT22;19501;50.948;5.316;2023-02-01T12:09:52;9.50;99.90
33139;DHT22;19501;50.948;5.316;2023-02-01T12:20:23;9.50;99.90
33139;DHT22;19501;50.948;5.316;2023-02-01T12:33:06;9.40;99.90
33139;DHT22;19501;50.948;5.316;2023-02-01T12:40:52;9.20;99.90
33139;DHT22;19501;50.948;5.316;2023-02-01T12:43:21;9.20;99.90
33139;DHT22;19501;50.948;5.316;2023-02-01T12:46:10;9.20;99.90
33139;DHT22;19501;50.948;5.316;2023-02-01T12:48:40;9.20;99.90
33139;DHT22;19501;50.948;5.316;2023-02-01T12:51:15;9.20;99.90
33139;DHT22;19501;50.948;5.316;2023-02-01T12:53:45;9.20;99.90
33139;DHT22;19501;50.948;5.316;2023-02-01T12:56:14;9.10;99.90
33139;DHT22;19501;50.948;5.316;2023-02-01T12:58:42;9.10;99.90
33139;DHT22;19501;50.948;5.316;2023-02-01T13:01:14;9.20;99.90
33139;DHT22;19501;50.948;5.316;2023-02-01T13:03:52;9.30;99.90
33139;DHT22;19501;50.948;5.316;2023-02-01T13:06:22;9.20;99.90
33139;DHT22;19501;50.948;5.316;2023-02-01T13:08:53;9.20;99.90
33139;DHT22;19501;50.948;5.316;2023-02-01T13:13:56;9.20;99.90
33139;DHT22;19501;50.948;5.316;2023-02-01T13:16:43;9.20;99.90
33139;DHT22;19501;50.948;5.316;2023-02-01T13:19:17;9.20;99.90
33139;DHT22;19501;50.948;5.316;2023-02-01T13:21:46;9.30;99.90
33139;DHT22;19501;50.948;5.316;2023-02-01T13:24:27;9.30;99.90
33139;DHT22;19501;50.948;5.316;2023-02-01T13:26:55;9.30;99.90
33139;DHT22;19501;50.948;5.316;2023-02-01T13:29:22;9.40;99.90
33139;DHT22;19501;50.948;5.316;2023-02-01T13:37:18;9.40;99.90
33139;DHT22;19501;50.948;5.316;2023-02-01T13:42:30;9.50;99.90
33139;DHT22;19501;50.948;5.316;2023-02-01T13:44:58;9.50;99.90
33139;DHT22;19501;50.948;5.316;2023-02-01T13:47:29;9.50;99.90
33139;DHT22;19501;50.948;5.316;2023-02-01T13:49:57;9.50;99.90
33139;DHT22;19501;50.948;5.316;2023-02-01T13:54:49;9.40;99.90
33139;DHT22;19501;50.948;5.316;2023-02-01T13:57:47;9.40;99.90
33139;DHT22;19501;50.948;5.316;2023-02-01T14:00:28;9.50;99.90
33139;DHT22;19501;50.948;5.316;2023-02-01T14:10:48;9.60;99.90
33139;DHT22;19501;50.948;5.316;2023-02-01T14:16:22;9.50;99.90
33139;DHT22;19501;50.948;5.316;2023-02-01T14:23:40;9.50;99.90
33139;DHT22;19501;50.948;5.316;2023-02-01T14:26:07;9.50;99.90
33139;DHT22;19501;50.948;5.316;2023-02-01T14:28:33;9.50;99.90
33139;DHT22;19501;50.948;5.316;2023-02-01T14:31:00;9.50;99.90
33139;DHT22;19501;50.948;5.316;2023-02-01T14:33:27;9.50;99.90
33139;DHT22;19501;50.948;5.316;2023-02-01T14:36:06;9.60;99.90
33139;DHT22;19501;50.948;5.316;2023-02-01T14:38:33;9.70;99.90
33139;DHT22;19501;50.948;5.316;2023-02-01T14:43:50;9.70;99.90
33139;DHT22;19501;50.948;5.316;2023-02-01T14:46:16;9.70;99.90
33139;DHT22;19501;50.948;5.316;2023-02-01T14:48:44;9.70;99.90
33139;DHT22;19501;50.948;5.316;2023-02-01T14:51:11;9.70;99.90
33139;DHT22;19501;50.948;5.316;2023-02-01T14:53:38;9.70;99.90
33139;DHT22;19501;50.948;5.316;2023-02-01T14:56:06;9.70;99.90
33139;DHT22;19501;50.948;5.316;2023-02-01T15:01:01;9.70;99.90
33139;DHT22;19501;50.948;5.316;2023-02-01T15:05:58;9.70;99.90
33139;DHT22;19501;50.948;5.316;2023-02-01T15:08:30;9.80;99.90
33139;DHT22;19501;50.948;5.316;2023-02-01T15:10:56;9.70;99.90
33139;DHT22;19501;50.948;5.316;2023-02-01T15:13:26;9.60;99.90
33139;DHT22;19501;50.948;5.316;2023-02-01T15:18:30;9.70;99.90
33139;DHT22;19501;50.948;5.316;2023-02-01T15:20:57;9.70;99.90
33139;DHT22;19501;50.948;5.316;2023-02-01T15:23:23;9.70;99.90
33139;DHT22;19501;50.948;5.316;2023-02-01T15:25:48;9.50;99.90
33139;DHT22;19501;50.948;5.316;2023-02-01T15:28:14;9.40;99.90
33139;DHT22;19501;50.948;5.316;2023-02-01T15:30:51;9.30;99.90
33139;DHT22;19501;50.948;5.316;2023-02-01T15:33:17;9.30;99.90
33139;DHT22;19501;50.948;5.316;2023-02-01T15:35:45;9.40;99.90
33139;DHT22;19501;50.948;5.316;2023-02-01T15:38:18;9.30;99.90
33139;DHT22;19501;50.948;5.316;2023-02-01T15:43:18;9.20;99.90
33139;DHT22;19501;50.948;5.316;2023-02-01T15:45:46;9.20;99.90
33139;DHT22;19501;50.948;5.316;2023-02-01T15:48:14;9.20;99.90
33139;DHT22;19501;50.948;5.316;2023-02-01T15:50:44;9.30;99.90
33139;DHT22;19501;50.948;5.316;2023-02-01T15:53:12;9.30;99.90
33139;DHT22;19501;50.948;5.316;2023-02-01T15:55:40;9.40;99.90
33139;DHT22;19501;50.948;5.316;2023-02-01T15:58:07;9.40;99.90
33139;DHT22;19501;50.948;5.316;2023-02-01T16:05:54;8.90;99.90
33139;DHT22;19501;50.948;5.316;2023-02-01T16:08:24;8.70;99.90
33139;DHT22;19501;50.948;5.316;2023-02-01T16:10:51;8.60;99.90
33139;DHT22;19501;50.948;5.316;2023-02-01T16:13:18;8.40;99.90
33139;DHT22;19501;50.948;5.316;2023-02-01T16:15:44;8.40;99.90
33139;DHT22;19501;50.948;5.316;2023-02-01T16:18:10;8.30;99.90
33139;DHT22;19501;50.948;5.316;2023-02-01T16:20:36;8.40;99.90
33139;DHT22;19501;50.948;5.316;2023-02-01T16:23:03;8.40;99.90
33139;DHT22;19501;50.948;5.316;2023-02-01T16:25:30;8.50;99.90
33139;DHT22;19501;50.948;5.316;2023-02-01T16:27:55;8.60;99.90
33139;DHT22;19501;50.948;5.316;2023-02-01T16:30:21;8.70;99.90
33139;DHT22;19501;50.948;5.316;2023-02-01T16:32:49;8.80;99.90
33139;DHT22;19501;50.948;5.316;2023-02-01T16:38:17;9.00;99.90
33139;DHT22;19501;50.948;5.316;2023-02-01T16:40:44;9.00;99.90
33139;DHT22;19501;50.948;5.316;2023-02-01T16:45:38;8.90;99.90
33139;DHT22;19501;50.948;5.316;2023-02-01T16:48:07;8.90;99.90
33139;DHT22;19501;50.948;5.316;2023-02-01T16:50:33;8.90;99.90
33139;DHT22;19501;50.948;5.316;2023-02-01T16:52:59;8.70;99.90
33139;DHT22;19501;50.948;5.316;2023-02-01T16:55:24;8.60;99.90
33139;DHT22;19501;50.948;5.316;2023-02-01T16:57:51;8.50;99.90
33139;DHT22;19501;50.948;5.316;2023-02-01T17:00:17;8.50;99.90
33139;DHT22;19501;50.948;5.316;2023-02-01T17:02:43;8.60;99.90
33139;DHT22;19501;50.948;5.316;2023-02-01T17:05:10;8.70;99.90
33139;DHT22;19501;50.948;5.316;2023-02-01T17:07:36;8.80;99.90
33139;DHT22;19501;50.948;5.316;2023-02-01T17:10:04;8.80;99.90
33139;DHT22;19501;50.948;5.316;2023-02-01T17:12:31;8.90;99.90
33139;DHT22;19501;50.948;5.316;2023-02-01T17:14:57;8.90;99.90
33139;DHT22;19501;50.948;5.316;2023-02-01T17:17:23;8.90;99.90
33139;DHT22;19501;50.948;5.316;2023-02-01T17:19:51;8.80;99.90
33139;DHT22;19501;50.948;5.316;2023-02-01T17:22:21;8.70;99.90
33139;DHT22;19501;50.948;5.316;2023-02-01T17:24:47;8.80;99.90
33139;DHT22;19501;50.948;5.316;2023-02-01T17:27:13;8.70;99.90
33139;DHT22;19501;50.948;5.316;2023-02-01T17:29:39;8.70;99.90
33139;DHT22;19501;50.948;5.316;2023-02-01T17:32:06;8.80;99.90
33139;DHT22;19501;50.948;5.316;2023-02-01T17:34:40;8.80;99.90
33139;DHT22;19501;50.948;5.316;2023-02-01T17:37:14;8.70;99.90
33139;DHT22;19501;50.948;5.316;2023-02-01T17:39:43;8.70;99.90
33139;DHT22;19501;50.948;5.316;2023-02-01T17:42:22;8.70;99.90
33139;DHT22;19501;50.948;5.316;2023-02-01T17:44:48;8.60;99.90
33139;DHT22;19501;50.948;5.316;2023-02-01T17:47:14;8.60;99.90
33139;DHT22;19501;50.948;5.316;2023-02-01T17:49:39;8.60;99.90
33139;DHT22;19501;50.948;5.316;2023-02-01T17:52:09;8.60;99.90
33139;DHT22;19501;50.948;5.316;2023-02-01T17:54:39;8.60;99.90
33139;DHT22;19501;50.948;5.316;2023-02-01T17:57:08;8.60;99.90
33139;DHT22;19501;50.948;5.316;2023-02-01T17:59:35;8.60;99.90
33139;DHT22;19501;50.948;5.316;2023-02-01T18:02:01;8.60;99.90
33139;DHT22;19501;50.948;5.316;2023-02-01T18:04:26;8.60;99.90
33139;DHT22;19501;50.948;5.316;2023-02-01T18:06:53;8.60;99.90
33139;DHT22;19501;50.948;5.316;2023-02-01T18:09:19;8.70;99.90
33139;DHT22;19501;50.948;5.316;2023-02-01T18:11:44;8.70;99.90
33139;DHT22;19501;50.948;5.316;2023-02-01T18:14:11;8.60;99.90
33139;DHT22;19501;50.948;5.316;2023-02-01T18:16:37;8.60;99.90
33139;DHT22;19501;50.948;5.316;2023-02-01T18:19:03;8.60;99.90
33139;DHT22;19501;50.948;5.316;2023-02-01T18:21:37;8.60;99.90
33139;DHT22;19501;50.948;5.316;2023-02-01T18:24:03;8.70;99.90
33139;DHT22;19501;50.948;5.316;2023-02-01T18:26:29;8.70;99.90
33139;DHT22;19501;50.948;5.316;2023-02-01T18:28:54;8.70;99.90
33139;DHT22;19501;50.948;5.316;2023-02-01T18:31:24;8.80;99.90